Time;durP1;ratioP1;P1;durP2;ratioP2;P2;SDS_P1;SDS_P2;PMS_P1;PMS_P2;Temp;Humidity;BMP_temperature;BMP_pressure;BME280_temperature;BME280_humidity;BME280_pressure;Samples;Min_cycle;Max_cycle;Signal;HPM_P1;HPM_P2
2022/03/20 00:00:53;;;;;;;11.77;5.20;;;;;;;;;;5026788;28;20037;-62
2022/03/20 00:03:20;;;;;;;10.60;6.95;;;;;;;;;;5027603;28;20049;-62
2022/03/20 00:05:47;;;;;;;8.90;3.60;;;;;;;;;;5026939;28;20038;-62
2022/03/20 00:08:13;;;;;;;8.65;4.88;;;;;;;;;;5026213;28;20047;-60
2022/03/20 00:10:44;;;;;;;10.07;4.05;;;;;;;;;;5027222;28;20045;-62
2022/03/20 00:13:11;;;;;;;10.88;5.65;;;;;;;;;;5026939;28;20088;-61
2022/03/20 00:15:42;;;;;;;8.85;5.47;;;;;;;;;;5028416;28;20037;-60
2022/03/20 00:18:09;;;;;;;9.50;5.28;;;;;;;;;;5029023;28;20103;-61
2022/03/20 00:20:36;;;;;;;6.05;3.90;;;;;;;;;;5028342;28;20033;-61
2022/03/20 00:23:06;;;;;;;9.27;5.68;;;;;;;;;;5028504;28;20041;-59
2022/03/20 00:25:32;;;;;;;8.98;5.00;;;;;;;;;;5041309;28;20042;-60
2022/03/20 00:27:58;;;;;;;9.63;5.22;;;;;;;;;;5027942;28;20484;-60
2022/03/20 00:30:24;;;;;;;11.52;5.82;;;;;;;;;;5031195;28;20091;-60
2022/03/20 00:32:50;;;;;;;10.68;6.22;;;;;;;;;;5030600;28;20045;-60
2022/03/20 00:35:16;;;;;;;12.65;7.40;;;;;;;;;;5030275;28;20041;-60
2022/03/20 00:37:42;;;;;;;10.43;5.50;;;;;;;;;;5031571;28;20041;-59
2022/03/20 00:40:09;;;;;;;10.05;6.50;;;;;;;;;;5029957;28;20037;-60
2022/03/20 00:42:35;;;;;;;11.75;6.22;;;;;;;;;;5030802;28;20034;-62
2022/03/20 00:45:01;;;;;;;10.73;5.82;;;;;;;;;;5044400;28;20083;-60
2022/03/20 00:47:27;;;;;;;17.70;7.13;;;;;;;;;;5030544;28;20048;-60
2022/03/20 00:49:53;;;;;;;12.02;6.60;;;;;;;;;;5030710;28;20444;-60
2022/03/20 00:52:19;;;;;;;9.93;6.53;;;;;;;;;;5031465;28;20037;-60
2022/03/20 00:54:45;;;;;;;12.52;7.28;;;;;;;;;;5030476;28;20041;-61
2022/03/20 00:57:11;;;;;;;11.48;6.90;;;;;;;;;;5030024;28;20513;-61
2022/03/20 00:59:37;;;;;;;9.25;5.20;;;;;;;;;;5029992;28;20045;-60
2022/03/20 01:02:04;;;;;;;15.55;7.70;;;;;;;;;;5029801;28;20048;-60
2022/03/20 01:04:31;;;;;;;14.38;7.75;;;;;;;;;;5013441;28;20033;-59
2022/03/20 01:07:01;;;;;;;14.25;8.10;;;;;;;;;;5031010;28;20103;-60
2022/03/20 01:09:28;;;;;;;14.95;8.40;;;;;;;;;;5030076;28;20037;-61
2022/03/20 01:11:55;;;;;;;14.55;8.85;;;;;;;;;;5031083;28;20071;-62
2022/03/20 01:14:21;;;;;;;11.77;6.07;;;;;;;;;;5029154;28;20064;-60
2022/03/20 01:16:47;;;;;;;13.15;7.43;;;;;;;;;;5027394;28;20426;-61
2022/03/20 01:19:14;;;;;;;16.55;8.73;;;;;;;;;;5031353;28;20041;-62
2022/03/20 01:21:41;;;;;;;14.13;7.80;;;;;;;;;;5030421;28;20495;-61
2022/03/20 01:24:08;;;;;;;16.92;8.38;;;;;;;;;;5029637;28;20045;-62
2022/03/20 01:26:35;;;;;;;15.73;9.32;;;;;;;;;;5013188;28;20073;-62
2022/03/20 01:29:02;;;;;;;11.65;7.22;;;;;;;;;;5029321;28;20049;-61
2022/03/20 01:31:29;;;;;;;11.27;6.85;;;;;;;;;;5029339;28;20060;-61
2022/03/20 01:33:55;;;;;;;17.90;9.52;;;;;;;;;;5031361;28;20510;-62
2022/03/20 01:36:21;;;;;;;8.60;5.53;;;;;;;;;;5029516;28;20519;-62
2022/03/20 01:38:48;;;;;;;14.25;8.93;;;;;;;;;;5027418;28;20046;-60
2022/03/20 01:41:14;;;;;;;15.85;8.93;;;;;;;;;;5030879;28;20041;-61
2022/03/20 01:43:48;;;;;;;11.75;7.40;;;;;;;;;;5029658;28;20048;-60
2022/03/20 01:46:15;;;;;;;15.57;8.90;;;;;;;;;;5030397;28;20413;-60
2022/03/20 01:48:41;;;;;;;16.00;9.15;;;;;;;;;;5026712;28;20420;-61
2022/03/20 01:51:07;;;;;;;15.70;10.00;;;;;;;;;;5029848;28;20075;-60
2022/03/20 01:53:33;;;;;;;18.75;10.20;;;;;;;;;;5028900;28;20456;-60
2022/03/20 01:55:59;;;;;;;14.40;9.13;;;;;;;;;;5030578;28;20644;-63
2022/03/20 01:58:25;;;;;;;16.38;9.82;;;;;;;;;;5044494;28;20045;-62
2022/03/20 02:00:51;;;;;;;15.63;8.45;;;;;;;;;;5028243;28;20053;-62
2022/03/20 02:03:19;;;;;;;14.52;9.40;;;;;;;;;;5029529;28;20030;-61
2022/03/20 02:05:45;;;;;;;17.80;8.85;;;;;;;;;;5044272;28;20041;-61
2022/03/20 02:08:15;;;;;;;15.57;9.07;;;;;;;;;;5027328;28;20102;-61
2022/03/20 02:10:43;;;;;;;14.32;9.55;;;;;;;;;;5028420;28;20071;-61
2022/03/20 02:13:09;;;;;;;15.88;8.90;;;;;;;;;;5026784;28;20081;-61
2022/03/20 02:15:38;;;;;;;11.88;8.95;;;;;;;;;;5028426;28;20061;-61
2022/03/20 02:18:07;;;;;;;17.40;9.30;;;;;;;;;;5028718;28;20453;-61
2022/03/20 02:20:33;;;;;;;17.13;10.30;;;;;;;;;;5028747;28;20084;-62
2022/03/20 02:23:00;;;;;;;18.20;10.60;;;;;;;;;;5034624;28;20091;-61
2022/03/20 02:25:26;;;;;;;15.82;9.35;;;;;;;;;;5027820;28;20065;-61
2022/03/20 02:27:52;;;;;;;17.63;11.45;;;;;;;;;;5029032;28;20710;-61
2022/03/20 02:30:18;;;;;;;15.20;10.77;;;;;;;;;;5029332;28;20049;-62
2022/03/20 02:32:45;;;;;;;17.65;9.93;;;;;;;;;;5033394;28;20047;-61
2022/03/20 02:35:14;;;;;;;17.88;11.10;;;;;;;;;;5027278;28;20037;-61
2022/03/20 02:37:42;;;;;;;14.48;11.10;;;;;;;;;;5028690;28;20041;-61
2022/03/20 02:40:08;;;;;;;20.80;11.05;;;;;;;;;;5028638;28;20135;-62
2022/03/20 02:42:37;;;;;;;18.40;11.95;;;;;;;;;;5027930;28;20077;-61
2022/03/20 02:45:03;;;;;;;19.30;11.60;;;;;;;;;;5028789;28;20049;-62
2022/03/20 02:47:31;;;;;;;19.65;11.85;;;;;;;;;;5027220;28;20604;-62
2022/03/20 02:49:59;;;;;;;17.15;11.65;;;;;;;;;;5008025;28;20038;-61
2022/03/20 02:52:29;;;;;;;19.42;11.52;;;;;;;;;;5026617;28;20523;-61
2022/03/20 02:55:02;;;;;;;21.58;12.27;;;;;;;;;;5026737;28;20548;-61
2022/03/20 02:57:32;;;;;;;18.25;12.75;;;;;;;;;;5028364;28;20492;-61
2022/03/20 03:00:00;;;;;;;18.30;13.68;;;;;;;;;;5028120;28;20033;-62
2022/03/20 03:02:31;;;;;;;16.45;12.02;;;;;;;;;;5043123;28;20041;-62
2022/03/20 03:05:00;;;;;;;19.70;12.10;;;;;;;;;;5026879;28;20041;-61
2022/03/20 03:07:27;;;;;;;19.42;13.27;;;;;;;;;;5027129;28;20098;-63
2022/03/20 03:12:37;;;;;;;16.08;9.05;;;;;;;;;;5026741;28;20095;-61
2022/03/20 03:15:19;;;;;;;16.98;11.32;;;;;;;;;;5026722;28;20400;-61
2022/03/20 03:17:46;;;;;;;19.83;11.80;;;;;;;;;;5027834;28;20081;-62
2022/03/20 03:20:12;;;;;;;21.83;13.80;;;;;;;;;;5026875;28;20063;-61
2022/03/20 03:22:38;;;;;;;18.02;12.30;;;;;;;;;;5028390;28;20049;-62
2022/03/20 03:25:06;;;;;;;18.63;12.15;;;;;;;;;;5027173;28;20392;-61
2022/03/20 03:27:32;;;;;;;18.23;12.57;;;;;;;;;;5027551;28;20469;-61
2022/03/20 03:29:58;;;;;;;17.17;11.70;;;;;;;;;;5040111;28;20057;-62
2022/03/20 03:32:24;;;;;;;20.52;13.00;;;;;;;;;;5026926;28;20407;-60
2022/03/20 03:37:35;;;;;;;14.88;8.88;;;;;;;;;;5027140;28;20522;-59
2022/03/20 03:40:03;;;;;;;22.55;13.48;;;;;;;;;;5026965;28;20040;-61
2022/03/20 03:42:33;;;;;;;19.38;13.13;;;;;;;;;;5026087;28;20381;-60
2022/03/20 03:44:59;;;;;;;19.83;13.13;;;;;;;;;;5027259;28;20051;-61
2022/03/20 03:47:25;;;;;;;19.10;10.77;;;;;;;;;;5028618;28;20041;-61
2022/03/20 03:49:51;;;;;;;20.75;13.60;;;;;;;;;;5008407;28;20087;-61
2022/03/20 03:52:19;;;;;;;21.30;14.27;;;;;;;;;;5028495;28;20041;-59
2022/03/20 03:54:46;;;;;;;21.50;13.65;;;;;;;;;;5028335;28;20400;-61
2022/03/20 03:57:12;;;;;;;21.38;15.55;;;;;;;;;;5027329;28;20045;-61
2022/03/20 03:59:38;;;;;;;19.27;13.68;;;;;;;;;;5027701;28;20049;-62
2022/03/20 04:02:05;;;;;;;20.98;14.98;;;;;;;;;;5027835;28;20057;-60
2022/03/20 04:04:31;;;;;;;21.13;14.40;;;;;;;;;;5032169;28;20037;-60
2022/03/20 04:06:57;;;;;;;23.25;14.68;;;;;;;;;;5030793;28;20037;-60
2022/03/20 04:09:24;;;;;;;23.05;14.25;;;;;;;;;;5030729;28;20034;-60
2022/03/20 04:11:52;;;;;;;19.35;13.05;;;;;;;;;;5030807;28;20391;-61
2022/03/20 04:14:18;;;;;;;21.15;15.35;;;;;;;;;;5032240;28;20045;-62
2022/03/20 04:16:44;;;;;;;18.73;14.05;;;;;;;;;;5014298;28;20045;-61
2022/03/20 04:19:10;;;;;;;18.83;13.52;;;;;;;;;;5047641;28;20100;-60
2022/03/20 04:21:37;;;;;;;22.48;14.95;;;;;;;;;;5031888;28;20088;-60
2022/03/20 04:24:03;;;;;;;17.63;12.70;;;;;;;;;;5031747;28;20049;-60
2022/03/20 04:26:29;;;;;;;22.35;15.48;;;;;;;;;;4997764;28;20041;-60
2022/03/20 04:28:56;;;;;;;18.88;11.48;;;;;;;;;;5030555;28;20100;-59
2022/03/20 04:31:22;;;;;;;20.23;13.50;;;;;;;;;;5030910;28;20523;-61
2022/03/20 04:33:53;;;;;;;21.13;15.05;;;;;;;;;;5013978;28;20107;-60
2022/03/20 04:36:21;;;;;;;23.60;14.63;;;;;;;;;;5030578;28;20046;-61
2022/03/20 04:38:48;;;;;;;19.02;12.45;;;;;;;;;;5030360;28;20042;-62
2022/03/20 04:41:15;;;;;;;22.10;14.25;;;;;;;;;;5029906;28;20484;-62
2022/03/20 04:43:41;;;;;;;24.98;17.75;;;;;;;;;;5029534;28;20129;-61
2022/03/20 04:46:07;;;;;;;16.83;12.23;;;;;;;;;;5030290;28;20034;-60
2022/03/20 04:59:32;;;;;;;20.38;15.20;;;;;;;;;;5030448;28;20503;-61
2022/03/20 05:01:58;;;;;;;22.13;15.98;;;;;;;;;;5030371;28;20042;-61
2022/03/20 05:04:24;;;;;;;13.65;9.77;;;;;;;;;;5030507;28;20045;-61
2022/03/20 05:06:50;;;;;;;23.30;16.58;;;;;;;;;;5031680;28;20472;-62
2022/03/20 05:14:46;;;;;;;16.95;10.02;;;;;;;;;;5030273;28;20513;-62
2022/03/20 05:17:12;;;;;;;21.02;13.68;;;;;;;;;;5029717;28;20475;-63
2022/03/20 05:19:43;;;;;;;22.42;16.80;;;;;;;;;;5032986;28;20442;-62
2022/03/20 05:22:12;;;;;;;17.67;10.93;;;;;;;;;;5030767;28;20045;-62
2022/03/20 05:24:39;;;;;;;25.67;16.25;;;;;;;;;;5012920;28;20030;-62
2022/03/20 05:27:06;;;;;;;23.30;16.90;;;;;;;;;;5013604;28;20372;-61
2022/03/20 05:29:32;;;;;;;24.08;17.23;;;;;;;;;;5029397;28;20052;-61
2022/03/20 05:31:58;;;;;;;24.08;17.60;;;;;;;;;;5029511;28;20088;-62
2022/03/20 05:34:25;;;;;;;22.85;14.68;;;;;;;;;;5030865;28;20090;-62
2022/03/20 05:36:51;;;;;;;19.55;12.40;;;;;;;;;;5030222;28;20124;-62
2022/03/20 05:39:17;;;;;;;23.38;16.67;;;;;;;;;;5029516;28;20160;-61
2022/03/20 05:41:46;;;;;;;22.67;17.75;;;;;;;;;;5029146;28;20046;-61
2022/03/20 05:44:18;;;;;;;23.92;17.58;;;;;;;;;;5013058;28;20118;-62
2022/03/20 05:46:50;;;;;;;23.73;18.35;;;;;;;;;;5031126;28;20088;-62
2022/03/20 05:49:17;;;;;;;30.63;19.20;;;;;;;;;;5029017;28;20033;-63
2022/03/20 05:51:43;;;;;;;27.08;18.38;;;;;;;;;;5028630;28;20041;-61
2022/03/20 05:54:09;;;;;;;25.02;18.40;;;;;;;;;;5030536;28;20087;-63
2022/03/20 05:59:21;;;;;;;23.70;16.48;;;;;;;;;;5029161;28;20041;-63
2022/03/20 06:01:51;;;;;;;23.27;16.40;;;;;;;;;;5028113;28;20502;-60
2022/03/20 06:04:17;;;;;;;24.75;18.15;;;;;;;;;;5030497;28;20038;-60
2022/03/20 06:06:43;;;;;;;22.52;16.48;;;;;;;;;;5028710;28;20041;-61
2022/03/20 06:09:10;;;;;;;28.17;17.80;;;;;;;;;;5030756;28;20491;-59
2022/03/20 06:11:36;;;;;;;18.35;13.90;;;;;;;;;;5028070;28;20129;-61
2022/03/20 06:14:03;;;;;;;19.70;13.55;;;;;;;;;;5028494;28;20077;-63
2022/03/20 06:16:29;;;;;;;24.92;16.05;;;;;;;;;;5027942;28;20533;-61
2022/03/20 06:18:57;;;;;;;25.65;16.63;;;;;;;;;;5029570;28;20089;-61
2022/03/20 06:21:23;;;;;;;25.73;18.48;;;;;;;;;;5027788;28;20045;-62
2022/03/20 06:23:50;;;;;;;25.13;19.05;;;;;;;;;;5027770;28;20116;-63
2022/03/20 06:26:19;;;;;;;20.30;16.35;;;;;;;;;;5027525;28;20046;-61
2022/03/20 06:28:48;;;;;;;24.42;18.85;;;;;;;;;;5027437;28;20478;-62
2022/03/20 06:31:15;;;;;;;25.75;19.40;;;;;;;;;;5027160;28;20060;-62
2022/03/20 06:33:41;;;;;;;25.70;15.82;;;;;;;;;;5028697;28;20038;-61
2022/03/20 06:36:07;;;;;;;25.08;18.00;;;;;;;;;;5028399;28;20049;-61
2022/03/20 06:38:35;;;;;;;22.65;16.83;;;;;;;;;;5027190;28;20037;-62
2022/03/20 06:41:01;;;;;;;22.50;16.38;;;;;;;;;;5027277;28;20037;-62
2022/03/20 06:43:30;;;;;;;24.90;18.40;;;;;;;;;;5027163;28;20041;-61
2022/03/20 06:45:56;;;;;;;22.30;16.63;;;;;;;;;;5027452;28;20045;-62
2022/03/20 06:48:22;;;;;;;21.88;16.60;;;;;;;;;;5043561;28;20045;-60
2022/03/20 06:50:48;;;;;;;22.35;14.93;;;;;;;;;;5026826;28;20049;-61
2022/03/20 06:53:17;;;;;;;23.75;18.25;;;;;;;;;;5027339;28;20521;-61
2022/03/20 06:55:44;;;;;;;17.67;13.43;;;;;;;;;;5028163;28;20041;-62
2022/03/20 06:58:10;;;;;;;22.17;16.80;;;;;;;;;;5028222;28;20364;-61
2022/03/20 07:00:37;;;;;;;22.02;17.35;;;;;;;;;;5026871;28;20136;-61
2022/03/20 07:03:06;;;;;;;23.73;17.92;;;;;;;;;;5026565;28;20046;-62
2022/03/20 07:05:32;;;;;;;20.83;15.43;;;;;;;;;;5024761;28;20103;-62
2022/03/20 07:07:58;;;;;;;18.10;13.40;;;;;;;;;;5042632;28;20060;-63
2022/03/20 07:10:25;;;;;;;22.67;17.00;;;;;;;;;;5026505;28;20095;-61
2022/03/20 07:12:51;;;;;;;20.35;14.88;;;;;;;;;;5028519;28;20471;-61
2022/03/20 07:15:18;;;;;;;18.00;12.88;;;;;;;;;;5027496;28;20045;-63
2022/03/20 07:17:47;;;;;;;18.17;13.15;;;;;;;;;;5024300;28;20037;-62
2022/03/20 07:20:15;;;;;;;17.70;11.02;;;;;;;;;;5028044;28;20144;-62
2022/03/20 07:22:41;;;;;;;19.40;15.13;;;;;;;;;;5010273;28;20661;-62
2022/03/20 07:30:39;;;;;;;17.08;12.65;;;;;;;;;;5024310;28;20075;-61
2022/03/20 07:33:05;;;;;;;18.58;11.68;;;;;;;;;;5025741;28;20060;-62
2022/03/20 07:35:32;;;;;;;11.57;7.35;;;;;;;;;;5025653;28;20506;-63
2022/03/20 07:37:58;;;;;;;19.90;14.40;;;;;;;;;;5026135;28;20502;-62
2022/03/20 07:40:24;;;;;;;15.38;10.43;;;;;;;;;;5025790;28;20140;-61
2022/03/20 07:42:50;;;;;;;12.32;9.02;;;;;;;;;;5008593;28;20037;-62
2022/03/20 07:45:18;;;;;;;19.45;13.77;;;;;;;;;;5025168;28;20034;-61
2022/03/20 07:47:45;;;;;;;15.05;9.73;;;;;;;;;;5026280;28;20495;-62
2022/03/20 07:50:11;;;;;;;20.65;15.98;;;;;;;;;;5027056;28;20037;-62
2022/03/20 07:52:38;;;;;;;20.30;14.15;;;;;;;;;;5025293;28;20033;-62
2022/03/20 07:55:04;;;;;;;19.70;15.82;;;;;;;;;;5023197;28;20041;-62
2022/03/20 07:57:30;;;;;;;20.55;16.00;;;;;;;;;;5025590;28;20045;-62
2022/03/20 07:59:57;;;;;;;20.40;14.82;;;;;;;;;;5027666;28;20033;-61
2022/03/20 08:02:23;;;;;;;20.85;15.63;;;;;;;;;;5026170;28;20440;-62
2022/03/20 08:04:51;;;;;;;20.55;15.13;;;;;;;;;;5010002;28;20400;-62
2022/03/20 08:07:19;;;;;;;20.00;15.30;;;;;;;;;;5027963;28;20041;-61
2022/03/20 08:09:46;;;;;;;17.73;14.30;;;;;;;;;;5008559;28;20046;-61
2022/03/20 08:12:13;;;;;;;17.58;11.35;;;;;;;;;;5026109;28;20403;-62
2022/03/20 08:14:39;;;;;;;17.55;13.18;;;;;;;;;;5023580;28;20414;-62
2022/03/20 08:17:08;;;;;;;20.52;12.40;;;;;;;;;;5027036;28;20038;-63
2022/03/20 08:19:35;;;;;;;19.58;16.70;;;;;;;;;;5026839;28;20052;-62
2022/03/20 08:22:03;;;;;;;15.00;10.73;;;;;;;;;;5042236;28;20050;-64
2022/03/20 08:24:29;;;;;;;19.52;13.95;;;;;;;;;;5025311;28;20045;-62
2022/03/20 08:26:55;;;;;;;17.65;13.98;;;;;;;;;;5009635;28;20084;-61
2022/03/20 08:29:21;;;;;;;18.80;14.32;;;;;;;;;;5008641;28;20555;-64
2022/03/20 08:31:47;;;;;;;13.07;9.70;;;;;;;;;;5025661;28;20068;-61
2022/03/20 08:34:15;;;;;;;14.90;10.65;;;;;;;;;;5027420;28;20522;-62
2022/03/20 08:36:44;;;;;;;20.15;15.13;;;;;;;;;;5026140;28;20037;-62
2022/03/20 08:39:11;;;;;;;16.38;11.75;;;;;;;;;;5008502;28;20038;-62
2022/03/20 08:41:37;;;;;;;16.55;13.02;;;;;;;;;;5007115;28;20076;-62
2022/03/20 08:44:04;;;;;;;19.65;13.13;;;;;;;;;;5007392;28;20041;-63
2022/03/20 08:46:31;;;;;;;18.42;14.10;;;;;;;;;;5026195;28;20049;-61
2022/03/20 08:48:57;;;;;;;21.25;15.98;;;;;;;;;;5029651;28;20044;-61
2022/03/20 08:51:24;;;;;;;21.30;16.38;;;;;;;;;;5030099;28;20045;-60
2022/03/20 08:53:50;;;;;;;9.63;7.05;;;;;;;;;;5029719;28;20037;-60
2022/03/20 08:56:17;;;;;;;18.58;10.93;;;;;;;;;;5029923;28;20057;-60
2022/03/20 08:58:44;;;;;;;22.05;16.10;;;;;;;;;;5030398;28;20060;-62
2022/03/20 09:01:11;;;;;;;22.00;15.45;;;;;;;;;;5013479;28;20029;-62
2022/03/20 09:03:37;;;;;;;21.83;17.15;;;;;;;;;;5030038;28;20491;-61
2022/03/20 09:06:03;;;;;;;20.40;15.95;;;;;;;;;;4997617;28;20392;-61
2022/03/20 09:08:29;;;;;;;14.93;9.35;;;;;;;;;;5030446;28;20052;-61
2022/03/20 09:10:55;;;;;;;20.38;15.93;;;;;;;;;;5031225;28;20041;-61
2022/03/20 09:13:21;;;;;;;20.85;15.55;;;;;;;;;;5030061;28;20124;-61
2022/03/20 09:18:59;;;;;;;20.58;13.90;;;;;;;;;;5046551;28;20047;-61
2022/03/20 09:21:18;;;;;;;21.02;15.70;;;;;;;;;;5030049;28;20060;-63
2022/03/20 09:23:44;;;;;;;17.67;14.43;;;;;;;;;;5030930;28;20180;-63
2022/03/20 09:26:10;;;;;;;19.48;16.83;;;;;;;;;;5031384;28;20494;-62
2022/03/20 09:28:36;;;;;;;22.52;15.00;;;;;;;;;;5028227;28;20045;-62
2022/03/20 09:31:02;;;;;;;21.45;15.18;;;;;;;;;;5029825;28;20062;-63
2022/03/20 09:33:29;;;;;;;22.30;17.75;;;;;;;;;;5029897;28;20041;-60
2022/03/20 09:35:56;;;;;;;18.42;14.90;;;;;;;;;;5028937;28;20056;-62
2022/03/20 09:38:25;;;;;;;21.48;16.80;;;;;;;;;;5022849;28;20126;-62
2022/03/20 09:40:52;;;;;;;19.23;15.23;;;;;;;;;;5042085;28;20057;-63
2022/03/20 09:43:18;;;;;;;21.35;17.60;;;;;;;;;;5028658;28;20299;-63
2022/03/20 09:45:44;;;;;;;20.58;14.05;;;;;;;;;;5029156;28;20487;-64
2022/03/20 09:48:12;;;;;;;20.67;16.63;;;;;;;;;;5035203;28;20034;-63
2022/03/20 09:50:38;;;;;;;20.33;16.17;;;;;;;;;;5024967;28;20509;-62
2022/03/20 09:53:04;;;;;;;20.50;17.08;;;;;;;;;;5029377;28;20064;-61
2022/03/20 09:55:31;;;;;;;23.25;19.17;;;;;;;;;;5027904;28;20041;-62
2022/03/20 09:57:57;;;;;;;23.20;17.90;;;;;;;;;;5011241;28;20153;-62
2022/03/20 10:00:24;;;;;;;21.67;16.95;;;;;;;;;;5027278;28;20483;-62
2022/03/20 10:02:50;;;;;;;25.00;19.25;;;;;;;;;;5029965;28;20046;-62
2022/03/20 10:05:21;;;;;;;23.85;18.25;;;;;;;;;;5026494;28;20073;-61
2022/03/20 10:07:47;;;;;;;24.88;19.58;;;;;;;;;;5027546;28;20034;-60
2022/03/20 10:10:25;;;;;;;22.20;19.77;;;;;;;;;;5027696;28;20037;-62
2022/03/20 10:12:53;;;;;;;24.42;19.63;;;;;;;;;;5025463;28;20053;-63
2022/03/20 10:15:34;;;;;;;22.13;19.45;;;;;;;;;;5026775;28;20050;-62
2022/03/20 10:18:20;;;;;;;22.88;18.67;;;;;;;;;;5026909;28;20041;-63
2022/03/20 10:20:49;;;;;;;25.33;20.48;;;;;;;;;;5026355;28;20602;-62
2022/03/20 10:23:28;;;;;;;26.77;20.00;;;;;;;;;;5026899;28;20045;-61
2022/03/20 10:25:55;;;;;;;24.33;18.98;;;;;;;;;;5024815;28;20621;-62
2022/03/20 10:28:21;;;;;;;22.92;20.38;;;;;;;;;;5032518;28;20049;-62
2022/03/20 10:31:00;;;;;;;29.10;17.05;;;;;;;;;;5025522;28;20063;-62
2022/03/20 10:33:26;;;;;;;22.02;16.45;;;;;;;;;;5025550;28;20060;-62
2022/03/20 10:36:12;;;;;;;23.90;15.68;;;;;;;;;;5025319;28;20190;-62
2022/03/20 10:38:41;;;;;;;22.00;16.13;;;;;;;;;;5026211;28;20049;-61
2022/03/20 10:41:19;;;;;;;24.67;20.23;;;;;;;;;;5042052;28;20129;-62
2022/03/20 10:43:47;;;;;;;23.63;19.02;;;;;;;;;;5025875;28;20602;-62
2022/03/20 10:46:19;;;;;;;18.25;14.82;;;;;;;;;;5025457;28;20103;-64
2022/03/20 10:48:47;;;;;;;18.88;14.80;;;;;;;;;;5010933;28;20076;-62
2022/03/20 10:51:13;;;;;;;21.73;18.15;;;;;;;;;;5025075;28;20448;-62
2022/03/20 10:53:53;;;;;;;26.05;20.20;;;;;;;;;;5022998;28;20049;-63
2022/03/20 10:56:19;;;;;;;24.58;19.77;;;;;;;;;;5026990;28;20060;-61
2022/03/20 10:58:45;;;;;;;19.42;15.38;;;;;;;;;;4991816;28;20033;-62
2022/03/20 11:01:12;;;;;;;26.48;21.67;;;;;;;;;;5026130;28;20038;-62
2022/03/20 11:03:39;;;;;;;21.08;15.85;;;;;;;;;;5037544;28;20048;-63
2022/03/20 11:06:08;;;;;;;24.08;20.25;;;;;;;;;;5022325;28;20357;-62
2022/03/20 11:08:37;;;;;;;20.88;15.98;;;;;;;;;;5017206;28;20041;-62
2022/03/20 11:11:03;;;;;;;25.08;20.02;;;;;;;;;;5016199;28;20053;-61
2022/03/20 11:13:30;;;;;;;23.67;19.52;;;;;;;;;;5024406;28;20049;-64
2022/03/20 11:15:59;;;;;;;25.00;20.00;;;;;;;;;;5025810;28;20388;-61
2022/03/20 11:18:26;;;;;;;23.33;17.85;;;;;;;;;;5006571;28;20053;-62
2022/03/20 11:20:52;;;;;;;26.25;19.13;;;;;;;;;;5023629;28;20083;-63
2022/03/20 11:23:19;;;;;;;24.30;20.17;;;;;;;;;;5024382;28;20049;-63
2022/03/20 11:25:47;;;;;;;27.88;20.05;;;;;;;;;;5041102;28;20464;-62
2022/03/20 11:28:14;;;;;;;24.25;17.77;;;;;;;;;;5030030;28;20456;-61
2022/03/20 11:30:41;;;;;;;24.40;17.92;;;;;;;;;;5023119;28;20107;-63
2022/03/20 11:33:09;;;;;;;19.90;15.85;;;;;;;;;;5025846;28;20137;-63
2022/03/20 11:35:36;;;;;;;24.63;17.65;;;;;;;;;;5023991;28;20049;-62
2022/03/20 11:38:16;;;;;;;25.55;18.52;;;;;;;;;;5023505;28;20453;-63
2022/03/20 11:41:02;;;;;;;24.67;19.80;;;;;;;;;;5006858;28;20053;-63
2022/03/20 11:43:28;;;;;;;21.42;17.30;;;;;;;;;;5004611;28;20038;-62
2022/03/20 11:46:13;;;;;;;21.40;18.85;;;;;;;;;;5008436;28;20044;-62
2022/03/20 11:48:39;;;;;;;20.70;16.38;;;;;;;;;;5024181;28;20091;-62
2022/03/20 11:51:05;;;;;;;21.40;17.88;;;;;;;;;;5025600;28;20049;-63
2022/03/20 11:53:31;;;;;;;18.63;12.82;;;;;;;;;;5024781;28;20041;-62
2022/03/20 11:55:58;;;;;;;23.17;19.40;;;;;;;;;;5025684;28;20056;-63
2022/03/20 11:58:24;;;;;;;24.17;18.63;;;;;;;;;;5027004;28;20041;-62
2022/03/20 12:01:12;;;;;;;24.10;20.33;;;;;;;;;;5034139;28;20492;-63
2022/03/20 12:03:47;;;;;;;24.00;18.30;;;;;;;;;;5024883;28;20117;-63
2022/03/20 12:06:19;;;;;;;22.98;19.63;;;;;;;;;;5024616;28;20057;-63
2022/03/20 12:08:45;;;;;;;22.38;18.75;;;;;;;;;;5023354;28;20129;-63
2022/03/20 12:11:26;;;;;;;22.23;18.77;;;;;;;;;;5025105;28;20057;-62
2022/03/20 12:14:06;;;;;;;20.70;18.50;;;;;;;;;;5024150;28;20077;-62
2022/03/20 12:16:44;;;;;;;21.33;17.63;;;;;;;;;;5023094;28;20056;-63
2022/03/20 12:19:11;;;;;;;19.33;14.88;;;;;;;;;;5026326;28;20041;-62
2022/03/20 12:21:56;;;;;;;16.50;10.35;;;;;;;;;;5025411;28;20049;-62
2022/03/20 12:24:49;;;;;;;20.17;13.18;;;;;;;;;;5028549;28;20037;-63
2022/03/20 12:27:24;;;;;;;21.45;12.18;;;;;;;;;;5024901;28;20051;-62
2022/03/20 12:29:53;;;;;;;22.08;14.50;;;;;;;;;;5028115;28;20187;-61
2022/03/20 12:32:23;;;;;;;18.23;14.05;;;;;;;;;;5029447;28;20150;-62
2022/03/20 12:35:04;;;;;;;19.40;11.95;;;;;;;;;;5027416;28;20499;-63
2022/03/20 12:37:32;;;;;;;15.45;10.77;;;;;;;;;;5027011;28;20046;-65
2022/03/20 12:39:58;;;;;;;15.73;10.77;;;;;;;;;;5030036;28;20080;-62
2022/03/20 12:42:24;;;;;;;15.63;9.55;;;;;;;;;;5027833;28;20040;-63
2022/03/20 12:44:51;;;;;;;15.48;11.90;;;;;;;;;;4995096;28;20101;-63
2022/03/20 12:47:21;;;;;;;20.40;12.65;;;;;;;;;;5014059;28;20045;-62
2022/03/20 12:49:51;;;;;;;18.55;14.57;;;;;;;;;;5028935;28;20033;-62
2022/03/20 12:52:19;;;;;;;12.98;9.93;;;;;;;;;;5030005;28;20042;-62
2022/03/20 12:54:55;;;;;;;15.73;10.13;;;;;;;;;;5024746;28;20045;-62
2022/03/20 12:57:37;;;;;;;16.67;12.50;;;;;;;;;;5028265;28;20132;-62
2022/03/20 13:00:13;;;;;;;14.88;9.55;;;;;;;;;;5031536;28;20444;-62
2022/03/20 13:02:58;;;;;;;17.75;11.95;;;;;;;;;;5030422;28;20041;-62
2022/03/20 13:05:25;;;;;;;19.17;13.00;;;;;;;;;;5028615;28;20041;-64
2022/03/20 13:07:53;;;;;;;19.50;14.50;;;;;;;;;;5028581;28;20115;-62
2022/03/20 13:10:19;;;;;;;17.45;12.05;;;;;;;;;;5028983;28;20105;-62
2022/03/20 13:13:01;;;;;;;18.95;12.43;;;;;;;;;;5028740;28;20076;-63
2022/03/20 13:15:37;;;;;;;18.80;15.50;;;;;;;;;;5030113;28;20123;-63
2022/03/20 13:18:05;;;;;;;13.23;9.88;;;;;;;;;;5028249;28;20034;-63
2022/03/20 13:20:35;;;;;;;17.70;12.63;;;;;;;;;;5028610;28;20167;-62
2022/03/20 13:23:08;;;;;;;19.00;13.50;;;;;;;;;;5029522;28;20215;-62
2022/03/20 13:25:35;;;;;;;;;;;;;;;;;;5025200;28;20568;-62
2022/03/20 13:28:01;;;;;;;18.30;12.55;;;;;;;;;;5029541;28;19924;-63
2022/03/20 13:30:38;;;;;;;12.02;8.95;;;;;;;;;;5029129;28;20543;-62
2022/03/20 13:33:05;;;;;;;15.40;10.60;;;;;;;;;;5011632;28;20294;-64
2022/03/20 13:35:32;;;;;;;20.00;11.80;;;;;;;;;;5029542;28;20334;-62
2022/03/20 13:37:59;;;;;;;14.57;10.20;;;;;;;;;;5026347;28;20101;-62
2022/03/20 13:40:27;;;;;;;16.23;11.55;;;;;;;;;;5028495;28;20068;-63
2022/03/20 13:42:53;;;;;;;16.60;10.43;;;;;;;;;;5009226;28;20073;-63
2022/03/20 13:45:20;;;;;;;13.95;7.68;;;;;;;;;;5028115;28;20045;-61
2022/03/20 13:47:47;;;;;;;19.15;13.88;;;;;;;;;;5009085;28;20061;-62
2022/03/20 13:50:14;;;;;;;13.48;9.05;;;;;;;;;;4994673;28;20045;-63
2022/03/20 13:52:42;;;;;;;13.10;10.18;;;;;;;;;;5028441;28;20041;-63
2022/03/20 13:55:10;;;;;;;17.55;11.95;;;;;;;;;;5027067;28;20545;-63
2022/03/20 13:57:49;;;;;;;16.77;12.35;;;;;;;;;;5028299;28;20129;-62
2022/03/20 14:00:16;;;;;;;19.20;14.20;;;;;;;;;;5027769;28;20037;-62
2022/03/20 14:02:47;;;;;;;18.40;11.88;;;;;;;;;;5027205;28;20045;-63
2022/03/20 14:05:15;;;;;;;15.93;13.20;;;;;;;;;;5026630;28;20041;-62
2022/03/20 14:07:41;;;;;;;21.70;16.83;;;;;;;;;;5027079;28;20033;-63
2022/03/20 14:10:36;;;;;;;20.05;13.38;;;;;;;;;;5027815;28;20061;-63
2022/03/20 14:13:36;;;;;;;13.05;9.00;;;;;;;;;;5026962;28;20060;-63
2022/03/20 14:16:06;;;;;;;20.67;15.63;;;;;;;;;;5047441;28;20095;-63
2022/03/20 14:18:33;;;;;;;20.77;14.77;;;;;;;;;;5010533;28;20096;-62
2022/03/20 14:21:14;;;;;;;13.23;9.43;;;;;;;;;;5024298;28;20045;-62
2022/03/20 14:24:01;;;;;;;20.67;15.27;;;;;;;;;;5040650;28;20037;-63
2022/03/20 14:26:28;;;;;;;11.30;7.88;;;;;;;;;;5026912;28;20450;-62
2022/03/20 14:39:26;;;;;;;16.90;14.52;;;;;;;;;;5027950;28;20045;-62
2022/03/20 14:40:53;;;;;;;18.70;11.55;;;;;;;;;;5026897;28;20047;-63
2022/03/20 14:43:26;;;;;;;23.50;14.23;;;;;;;;;;5026075;28;20049;-64
2022/03/20 14:45:56;;;;;;;22.77;16.35;;;;;;;;;;5023445;28;20391;-63
2022/03/20 14:48:28;;;;;;;20.52;16.08;;;;;;;;;;5026527;28;20044;-62
2022/03/20 14:50:55;;;;;;;23.38;15.27;;;;;;;;;;5027939;28;20453;-62
2022/03/20 14:53:25;;;;;;;16.05;10.48;;;;;;;;;;5027173;28;20052;-62
2022/03/20 14:55:51;;;;;;;21.20;13.05;;;;;;;;;;5027518;28;20048;-62
2022/03/20 14:58:19;;;;;;;16.55;13.02;;;;;;;;;;5010766;28;20041;-62
2022/03/20 15:00:45;;;;;;;19.15;11.00;;;;;;;;;;5025888;28;20045;-62
2022/03/20 15:03:11;;;;;;;16.75;12.18;;;;;;;;;;5028502;28;20095;-64
2022/03/20 15:05:37;;;;;;;17.55;13.60;;;;;;;;;;5028731;28;20049;-63
2022/03/20 15:13:33;;;;;;;17.23;12.25;;;;;;;;;;5028225;28;20159;-63
2022/03/20 15:15:59;;;;;;;21.85;15.63;;;;;;;;;;5029034;28;20076;-63